sensor_id;sensor_type;location;lat;lon;timestamp;P1;durP1;ratioP1;P2;durP2;ratioP2
489;SDS011;231;48.120;11.576;2023-04-24T00:01:10;2.80;;;2.60;;
489;SDS011;231;48.120;11.576;2023-04-24T00:03:38;4.97;;;2.50;;
489;SDS011;231;48.120;11.576;2023-04-24T00:06:05;3.13;;;2.93;;
489;SDS011;231;48.120;11.576;2023-04-24T00:08:34;3.60;;;3.40;;
489;SDS011;231;48.120;11.576;2023-04-24T00:11:01;3.03;;;2.83;;
489;SDS011;231;48.120;11.576;2023-04-24T00:13:28;3.00;;;2.60;;
489;SDS011;231;48.120;11.576;2023-04-24T00:15:54;5.50;;;2.80;;
489;SDS011;231;48.120;11.576;2023-04-24T00:18:21;3.10;;;2.90;;
489;SDS011;231;48.120;11.576;2023-04-24T00:20:48;3.23;;;2.33;;
489;SDS011;231;48.120;11.576;2023-04-24T00:23:15;3.10;;;2.97;;
489;SDS011;231;48.120;11.576;2023-04-24T00:25:43;3.30;;;1.80;;
489;SDS011;231;48.120;11.576;2023-04-24T00:28:10;2.87;;;2.67;;
489;SDS011;231;48.120;11.576;2023-04-24T00:30:37;2.27;;;2.07;;
489;SDS011;231;48.120;11.576;2023-04-24T00:33:04;2.30;;;2.10;;
489;SDS011;231;48.120;11.576;2023-04-24T00:35:31;3.00;;;2.80;;
489;SDS011;231;48.120;11.576;2023-04-24T00:37:57;2.93;;;2.00;;
489;SDS011;231;48.120;11.576;2023-04-24T00:40:24;2.53;;;2.33;;
489;SDS011;231;48.120;11.576;2023-04-24T00:42:52;2.83;;;2.20;;
489;SDS011;231;48.120;11.576;2023-04-24T00:45:19;1.93;;;1.83;;
489;SDS011;231;48.120;11.576;2023-04-24T00:47:46;1.77;;;1.67;;
489;SDS011;231;48.120;11.576;2023-04-24T00:50:14;1.80;;;1.70;;
489;SDS011;231;48.120;11.576;2023-04-24T00:52:42;1.90;;;1.80;;
489;SDS011;231;48.120;11.576;2023-04-24T00:55:09;2.20;;;1.87;;
489;SDS011;231;48.120;11.576;2023-04-24T00:57:36;2.70;;;1.83;;
489;SDS011;231;48.120;11.576;2023-04-24T01:00:05;2.70;;;1.77;;
489;SDS011;231;48.120;11.576;2023-04-24T01:02:35;3.00;;;1.53;;
489;SDS011;231;48.120;11.576;2023-04-24T01:05:05;2.97;;;2.43;;
489;SDS011;231;48.120;11.576;2023-04-24T01:07:32;1.30;;;1.30;;
489;SDS011;231;48.120;11.576;2023-04-24T01:09:59;1.47;;;1.37;;
489;SDS011;231;48.120;11.576;2023-04-24T01:12:26;1.60;;;1.50;;
489;SDS011;231;48.120;11.576;2023-04-24T01:14:53;1.60;;;1.50;;
489;SDS011;231;48.120;11.576;2023-04-24T01:17:23;2.00;;;1.50;;
489;SDS011;231;48.120;11.576;2023-04-24T01:19:50;1.77;;;1.67;;
489;SDS011;231;48.120;11.576;2023-04-24T01:22:20;2.73;;;2.00;;
489;SDS011;231;48.120;11.576;2023-04-24T01:24:46;1.50;;;1.40;;
489;SDS011;231;48.120;11.576;2023-04-24T01:27:14;1.47;;;1.37;;
489;SDS011;231;48.120;11.576;2023-04-24T01:29:41;2.30;;;1.40;;
489;SDS011;231;48.120;11.576;2023-04-24T01:32:08;1.40;;;1.33;;
489;SDS011;231;48.120;11.576;2023-04-24T01:34:35;1.30;;;1.20;;
489;SDS011;231;48.120;11.576;2023-04-24T01:37:02;3.33;;;2.00;;
489;SDS011;231;48.120;11.576;2023-04-24T01:39:31;7.23;;;1.50;;
489;SDS011;231;48.120;11.576;2023-04-24T01:41:58;1.13;;;1.07;;
489;SDS011;231;48.120;11.576;2023-04-24T01:44:27;1.13;;;1.03;;
489;SDS011;231;48.120;11.576;2023-04-24T01:46:54;1.50;;;1.40;;
489;SDS011;231;48.120;11.576;2023-04-24T01:49:21;1.17;;;1.07;;
489;SDS011;231;48.120;11.576;2023-04-24T01:51:48;1.30;;;1.20;;
489;SDS011;231;48.120;11.576;2023-04-24T01:54:15;1.50;;;1.40;;
489;SDS011;231;48.120;11.576;2023-04-24T01:56:43;1.93;;;1.30;;
489;SDS011;231;48.120;11.576;2023-04-24T01:59:11;1.83;;;1.10;;
489;SDS011;231;48.120;11.576;2023-04-24T02:01:38;1.23;;;1.20;;
489;SDS011;231;48.120;11.576;2023-04-24T02:04:06;1.73;;;1.20;;
489;SDS011;231;48.120;11.576;2023-04-24T02:06:33;1.40;;;1.30;;
489;SDS011;231;48.120;11.576;2023-04-24T02:09:00;1.20;;;1.10;;
489;SDS011;231;48.120;11.576;2023-04-24T02:11:28;1.10;;;1.00;;
489;SDS011;231;48.120;11.576;2023-04-24T02:13:57;1.13;;;1.03;;
489;SDS011;231;48.120;11.576;2023-04-24T02:16:24;0.80;;;0.80;;
489;SDS011;231;48.120;11.576;2023-04-24T02:18:52;2.20;;;2.00;;
489;SDS011;231;48.120;11.576;2023-04-24T02:21:18;1.20;;;1.10;;
489;SDS011;231;48.120;11.576;2023-04-24T02:23:45;1.53;;;1.43;;
489;SDS011;231;48.120;11.576;2023-04-24T02:26:12;1.17;;;1.07;;
489;SDS011;231;48.120;11.576;2023-04-24T02:28:40;1.67;;;1.57;;
489;SDS011;231;48.120;11.576;2023-04-24T02:31:08;1.23;;;1.13;;
489;SDS011;231;48.120;11.576;2023-04-24T02:33:35;1.20;;;1.10;;
489;SDS011;231;48.120;11.576;2023-04-24T02:36:01;1.17;;;1.07;;
489;SDS011;231;48.120;11.576;2023-04-24T02:38:28;1.77;;;1.20;;
489;SDS011;231;48.120;11.576;2023-04-24T02:40:55;1.40;;;1.30;;
489;SDS011;231;48.120;11.576;2023-04-24T02:43:22;1.37;;;1.23;;
489;SDS011;231;48.120;11.576;2023-04-24T02:45:49;1.70;;;1.17;;
489;SDS011;231;48.120;11.576;2023-04-24T02:48:17;1.03;;;0.93;;
489;SDS011;231;48.120;11.576;2023-04-24T02:50:45;1.43;;;1.40;;
489;SDS011;231;48.120;11.576;2023-04-24T02:53:12;1.10;;;1.00;;
489;SDS011;231;48.120;11.576;2023-04-24T02:55:39;1.20;;;0.90;;
489;SDS011;231;48.120;11.576;2023-04-24T02:58:06;1.17;;;1.07;;
489;SDS011;231;48.120;11.576;2023-04-24T03:00:33;1.20;;;1.10;;
489;SDS011;231;48.120;11.576;2023-04-24T03:03:00;1.03;;;0.93;;
489;SDS011;231;48.120;11.576;2023-04-24T03:05:29;1.50;;;1.40;;
489;SDS011;231;48.120;11.576;2023-04-24T03:07:56;4.50;;;1.40;;
489;SDS011;231;48.120;11.576;2023-04-24T03:10:23;1.90;;;1.27;;
489;SDS011;231;48.120;11.576;2023-04-24T03:12:50;2.80;;;1.17;;
489;SDS011;231;48.120;11.576;2023-04-24T03:15:17;1.60;;;1.60;;
489;SDS011;231;48.120;11.576;2023-04-24T03:17:44;2.00;;;1.80;;
489;SDS011;231;48.120;11.576;2023-04-24T03:20:11;1.30;;;1.20;;
489;SDS011;231;48.120;11.576;2023-04-24T03:22:39;1.20;;;1.10;;
489;SDS011;231;48.120;11.576;2023-04-24T03:25:06;1.60;;;1.57;;
489;SDS011;231;48.120;11.576;2023-04-24T03:27:34;1.67;;;1.60;;
489;SDS011;231;48.120;11.576;2023-04-24T03:30:01;2.13;;;1.43;;
489;SDS011;231;48.120;11.576;2023-04-24T03:32:28;1.27;;;1.17;;
489;SDS011;231;48.120;11.576;2023-04-24T03:34:57;1.67;;;1.53;;
489;SDS011;231;48.120;11.576;2023-04-24T03:37:24;2.10;;;1.23;;
489;SDS011;231;48.120;11.576;2023-04-24T03:39:52;1.33;;;1.23;;
489;SDS011;231;48.120;11.576;2023-04-24T03:42:19;1.43;;;1.33;;
489;SDS011;231;48.120;11.576;2023-04-24T03:44:46;1.73;;;1.40;;
489;SDS011;231;48.120;11.576;2023-04-24T03:47:13;11.80;;;1.93;;
489;SDS011;231;48.120;11.576;2023-04-24T03:49:40;2.10;;;1.80;;
489;SDS011;231;48.120;11.576;2023-04-24T03:52:07;1.33;;;1.23;;
489;SDS011;231;48.120;11.576;2023-04-24T03:54:33;1.43;;;1.40;;
489;SDS011;231;48.120;11.576;2023-04-24T03:57:02;1.57;;;1.30;;
489;SDS011;231;48.120;11.576;2023-04-24T03:59:29;1.90;;;1.63;;
489;SDS011;231;48.120;11.576;2023-04-24T04:01:56;2.80;;;2.27;;
489;SDS011;231;48.120;11.576;2023-04-24T04:04:23;3.57;;;1.87;;
489;SDS011;231;48.120;11.576;2023-04-24T04:06:50;1.90;;;1.80;;
489;SDS011;231;48.120;11.576;2023-04-24T04:09:26;1.87;;;1.80;;
489;SDS011;231;48.120;11.576;2023-04-24T04:11:53;1.60;;;1.57;;
489;SDS011;231;48.120;11.576;2023-04-24T04:14:21;1.87;;;1.77;;
489;SDS011;231;48.120;11.576;2023-04-24T04:16:49;1.57;;;1.47;;
489;SDS011;231;48.120;11.576;2023-04-24T04:19:16;2.50;;;1.77;;
489;SDS011;231;48.120;11.576;2023-04-24T04:21:44;1.50;;;1.40;;
489;SDS011;231;48.120;11.576;2023-04-24T04:24:44;1.70;;;1.60;;
489;SDS011;231;48.120;11.576;2023-04-24T04:27:12;2.20;;;2.00;;
489;SDS011;231;48.120;11.576;2023-04-24T04:29:40;2.00;;;1.70;;
489;SDS011;231;48.120;11.576;2023-04-24T04:32:07;3.73;;;1.73;;
489;SDS011;231;48.120;11.576;2023-04-24T04:34:33;1.77;;;1.70;;
489;SDS011;231;48.120;11.576;2023-04-24T04:37:02;2.80;;;1.70;;
489;SDS011;231;48.120;11.576;2023-04-24T04:39:29;3.80;;;2.10;;
489;SDS011;231;48.120;11.576;2023-04-24T04:41:56;1.70;;;1.60;;
489;SDS011;231;48.120;11.576;2023-04-24T04:44:23;3.57;;;2.30;;
489;SDS011;231;48.120;11.576;2023-04-24T04:46:52;2.20;;;1.53;;
489;SDS011;231;48.120;11.576;2023-04-24T04:49:21;1.77;;;1.67;;
489;SDS011;231;48.120;11.576;2023-04-24T04:51:48;1.70;;;1.60;;
489;SDS011;231;48.120;11.576;2023-04-24T04:54:15;1.80;;;1.53;;
489;SDS011;231;48.120;11.576;2023-04-24T04:56:42;1.73;;;1.53;;
489;SDS011;231;48.120;11.576;2023-04-24T04:59:09;1.93;;;1.57;;
489;SDS011;231;48.120;11.576;2023-04-24T05:01:37;2.57;;;1.57;;
489;SDS011;231;48.120;11.576;2023-04-24T05:04:06;4.40;;;1.30;;
489;SDS011;231;48.120;11.576;2023-04-24T05:06:33;2.40;;;1.70;;
489;SDS011;231;48.120;11.576;2023-04-24T05:09:00;1.80;;;1.27;;
489;SDS011;231;48.120;11.576;2023-04-24T05:11:28;1.73;;;1.30;;
489;SDS011;231;48.120;11.576;2023-04-24T05:13:55;1.67;;;1.57;;
489;SDS011;231;48.120;11.576;2023-04-24T05:16:22;1.93;;;1.50;;
489;SDS011;231;48.120;11.576;2023-04-24T05:18:49;1.87;;;1.50;;
489;SDS011;231;48.120;11.576;2023-04-24T05:21:18;1.53;;;1.20;;
489;SDS011;231;48.120;11.576;2023-04-24T05:23:45;1.93;;;1.83;;
489;SDS011;231;48.120;11.576;2023-04-24T05:26:12;1.17;;;1.10;;
489;SDS011;231;48.120;11.576;2023-04-24T05:28:40;2.50;;;1.60;;
489;SDS011;231;48.120;11.576;2023-04-24T05:31:07;1.30;;;1.30;;
489;SDS011;231;48.120;11.576;2023-04-24T05:33:34;1.20;;;1.00;;
489;SDS011;231;48.120;11.576;2023-04-24T05:36:00;1.77;;;1.67;;
489;SDS011;231;48.120;11.576;2023-04-24T05:38:29;1.37;;;1.27;;
489;SDS011;231;48.120;11.576;2023-04-24T05:40:56;1.63;;;1.53;;
489;SDS011;231;48.120;11.576;2023-04-24T05:43:23;1.23;;;1.13;;
489;SDS011;231;48.120;11.576;2023-04-24T05:45:50;1.70;;;1.60;;
489;SDS011;231;48.120;11.576;2023-04-24T05:48:18;1.23;;;1.13;;
489;SDS011;231;48.120;11.576;2023-04-24T05:50:47;1.27;;;0.90;;
489;SDS011;231;48.120;11.576;2023-04-24T05:53:13;2.47;;;1.30;;
489;SDS011;231;48.120;11.576;2023-04-24T05:55:42;1.47;;;1.00;;
489;SDS011;231;48.120;11.576;2023-04-24T05:58:09;1.37;;;1.00;;
489;SDS011;231;48.120;11.576;2023-04-24T06:00:36;2.00;;;1.53;;
489;SDS011;231;48.120;11.576;2023-04-24T06:03:04;1.23;;;1.13;;
489;SDS011;231;48.120;11.576;2023-04-24T06:05:32;1.63;;;1.37;;
489;SDS011;231;48.120;11.576;2023-04-24T06:08:00;1.17;;;1.00;;
489;SDS011;231;48.120;11.576;2023-04-24T06:10:26;1.37;;;1.23;;
489;SDS011;231;48.120;11.576;2023-04-24T06:12:55;1.70;;;1.50;;
489;SDS011;231;48.120;11.576;2023-04-24T06:15:25;1.13;;;1.03;;
489;SDS011;231;48.120;11.576;2023-04-24T06:17:53;0.80;;;0.80;;
489;SDS011;231;48.120;11.576;2023-04-24T06:20:20;2.17;;;1.17;;
489;SDS011;231;48.120;11.576;2023-04-24T06:22:47;1.97;;;0.90;;
489;SDS011;231;48.120;11.576;2023-04-24T06:25:14;1.07;;;0.87;;
489;SDS011;231;48.120;11.576;2023-04-24T06:27:41;1.20;;;1.10;;
489;SDS011;231;48.120;11.576;2023-04-24T06:30:29;2.00;;;1.27;;
489;SDS011;231;48.120;11.576;2023-04-24T06:32:56;1.43;;;1.00;;
489;SDS011;231;48.120;11.576;2023-04-24T06:35:23;1.77;;;1.27;;
489;SDS011;231;48.120;11.576;2023-04-24T06:37:49;1.13;;;0.90;;
489;SDS011;231;48.120;11.576;2023-04-24T06:40:17;1.90;;;1.30;;
489;SDS011;231;48.120;11.576;2023-04-24T06:42:44;1.73;;;1.43;;
489;SDS011;231;48.120;11.576;2023-04-24T06:45:11;1.13;;;0.80;;
489;SDS011;231;48.120;11.576;2023-04-24T06:47:40;2.13;;;1.27;;
489;SDS011;231;48.120;11.576;2023-04-24T06:50:07;1.30;;;0.80;;
489;SDS011;231;48.120;11.576;2023-04-24T06:52:34;1.13;;;0.90;;
489;SDS011;231;48.120;11.576;2023-04-24T06:55:01;1.33;;;0.77;;
489;SDS011;231;48.120;11.576;2023-04-24T06:57:29;0.70;;;0.60;;
489;SDS011;231;48.120;11.576;2023-04-24T06:59:56;0.90;;;0.80;;
489;SDS011;231;48.120;11.576;2023-04-24T07:02:23;0.90;;;0.70;;
489;SDS011;231;48.120;11.576;2023-04-24T07:04:51;0.73;;;0.63;;
489;SDS011;231;48.120;11.576;2023-04-24T07:07:18;1.33;;;0.67;;
489;SDS011;231;48.120;11.576;2023-04-24T07:09:46;1.20;;;0.80;;
489;SDS011;231;48.120;11.576;2023-04-24T07:12:13;1.77;;;0.90;;
489;SDS011;231;48.120;11.576;2023-04-24T07:14:41;1.13;;;0.90;;
489;SDS011;231;48.120;11.576;2023-04-24T07:17:08;2.80;;;0.80;;
489;SDS011;231;48.120;11.576;2023-04-24T07:19:36;1.43;;;0.63;;
489;SDS011;231;48.120;11.576;2023-04-24T07:22:04;0.73;;;0.63;;
489;SDS011;231;48.120;11.576;2023-04-24T07:24:31;0.77;;;0.60;;
489;SDS011;231;48.120;11.576;2023-04-24T07:26:58;1.13;;;0.60;;
489;SDS011;231;48.120;11.576;2023-04-24T07:29:26;0.60;;;0.53;;
489;SDS011;231;48.120;11.576;2023-04-24T07:31:53;0.50;;;0.47;;
489;SDS011;231;48.120;11.576;2023-04-24T07:34:21;0.60;;;0.53;;
489;SDS011;231;48.120;11.576;2023-04-24T07:36:48;0.60;;;0.50;;
489;SDS011;231;48.120;11.576;2023-04-24T07:39:17;0.80;;;0.70;;
489;SDS011;231;48.120;11.576;2023-04-24T07:41:44;1.13;;;0.50;;
489;SDS011;231;48.120;11.576;2023-04-24T07:44:11;0.90;;;0.40;;
489;SDS011;231;48.120;11.576;2023-04-24T07:46:38;0.70;;;0.53;;
489;SDS011;231;48.120;11.576;2023-04-24T07:49:06;1.63;;;0.53;;
489;SDS011;231;48.120;11.576;2023-04-24T07:51:33;0.80;;;0.47;;
489;SDS011;231;48.120;11.576;2023-04-24T07:54:03;0.50;;;0.40;;
489;SDS011;231;48.120;11.576;2023-04-24T07:56:32;1.67;;;0.60;;
489;SDS011;231;48.120;11.576;2023-04-24T07:59:03;1.33;;;0.60;;
489;SDS011;231;48.120;11.576;2023-04-24T08:01:30;1.23;;;0.50;;
489;SDS011;231;48.120;11.576;2023-04-24T08:03:57;1.60;;;0.67;;
489;SDS011;231;48.120;11.576;2023-04-24T08:06:24;1.37;;;0.80;;
489;SDS011;231;48.120;11.576;2023-04-24T08:08:55;1.53;;;0.47;;
489;SDS011;231;48.120;11.576;2023-04-24T08:11:22;2.43;;;0.50;;
489;SDS011;231;48.120;11.576;2023-04-24T08:13:50;2.87;;;0.77;;
489;SDS011;231;48.120;11.576;2023-04-24T08:16:18;0.80;;;0.50;;
489;SDS011;231;48.120;11.576;2023-04-24T08:18:44;0.60;;;0.60;;
489;SDS011;231;48.120;11.576;2023-04-24T08:21:11;0.67;;;0.60;;
489;SDS011;231;48.120;11.576;2023-04-24T08:23:42;0.80;;;0.60;;
489;SDS011;231;48.120;11.576;2023-04-24T08:26:09;0.60;;;0.40;;
489;SDS011;231;48.120;11.576;2023-04-24T08:28:36;1.00;;;0.70;;
489;SDS011;231;48.120;11.576;2023-04-24T08:31:05;0.90;;;0.90;;
489;SDS011;231;48.120;11.576;2023-04-24T08:33:32;2.97;;;0.67;;
489;SDS011;231;48.120;11.576;2023-04-24T08:36:00;0.93;;;0.60;;
489;SDS011;231;48.120;11.576;2023-04-24T08:38:28;1.27;;;0.53;;
489;SDS011;231;48.120;11.576;2023-04-24T08:40:55;1.80;;;0.80;;
489;SDS011;231;48.120;11.576;2023-04-24T08:43:24;1.43;;;1.00;;
489;SDS011;231;48.120;11.576;2023-04-24T08:45:52;1.40;;;1.17;;
489;SDS011;231;48.120;11.576;2023-04-24T08:48:20;1.40;;;1.30;;
489;SDS011;231;48.120;11.576;2023-04-24T08:50:49;1.90;;;1.80;;
489;SDS011;231;48.120;11.576;2023-04-24T08:53:17;2.30;;;2.10;;
489;SDS011;231;48.120;11.576;2023-04-24T08:55:46;3.03;;;2.10;;
489;SDS011;231;48.120;11.576;2023-04-24T08:58:15;2.50;;;2.20;;
489;SDS011;231;48.120;11.576;2023-04-24T09:00:42;1.50;;;1.40;;
489;SDS011;231;48.120;11.576;2023-04-24T09:03:12;2.50;;;1.50;;
489;SDS011;231;48.120;11.576;2023-04-24T09:05:42;3.10;;;1.60;;
489;SDS011;231;48.120;11.576;2023-04-24T09:08:12;1.17;;;0.90;;
489;SDS011;231;48.120;11.576;2023-04-24T09:10:40;1.80;;;1.20;;
489;SDS011;231;48.120;11.576;2023-04-24T09:13:07;1.30;;;1.20;;
489;SDS011;231;48.120;11.576;2023-04-24T09:15:35;2.43;;;1.30;;
489;SDS011;231;48.120;11.576;2023-04-24T09:18:02;1.67;;;1.60;;
489;SDS011;231;48.120;11.576;2023-04-24T09:20:30;1.27;;;1.23;;
489;SDS011;231;48.120;11.576;2023-04-24T09:22:58;3.00;;;2.00;;
489;SDS011;231;48.120;11.576;2023-04-24T09:25:30;2.20;;;2.00;;
489;SDS011;231;48.120;11.576;2023-04-24T09:28:00;1.63;;;1.20;;
489;SDS011;231;48.120;11.576;2023-04-24T09:30:27;1.30;;;1.20;;
489;SDS011;231;48.120;11.576;2023-04-24T09:33:09;1.93;;;1.30;;
489;SDS011;231;48.120;11.576;2023-04-24T09:35:37;2.30;;;1.47;;
489;SDS011;231;48.120;11.576;2023-04-24T09:38:09;1.23;;;1.17;;
489;SDS011;231;48.120;11.576;2023-04-24T09:40:36;1.27;;;1.10;;
489;SDS011;231;48.120;11.576;2023-04-24T09:43:03;1.30;;;1.20;;
489;SDS011;231;48.120;11.576;2023-04-24T09:45:35;1.23;;;1.13;;
489;SDS011;231;48.120;11.576;2023-04-24T09:48:02;1.47;;;1.37;;
489;SDS011;231;48.120;11.576;2023-04-24T09:50:31;1.10;;;1.00;;
489;SDS011;231;48.120;11.576;2023-04-24T09:53:01;1.67;;;1.00;;
489;SDS011;231;48.120;11.576;2023-04-24T09:55:30;1.13;;;1.03;;
489;SDS011;231;48.120;11.576;2023-04-24T09:57:57;1.27;;;1.17;;
489;SDS011;231;48.120;11.576;2023-04-24T10:00:27;1.43;;;1.43;;
489;SDS011;231;48.120;11.576;2023-04-24T10:02:58;1.13;;;1.03;;
489;SDS011;231;48.120;11.576;2023-04-24T10:05:27;2.17;;;1.33;;
489;SDS011;231;48.120;11.576;2023-04-24T10:08:00;0.90;;;0.90;;
489;SDS011;231;48.120;11.576;2023-04-24T10:10:29;3.03;;;1.30;;
489;SDS011;231;48.120;11.576;2023-04-24T10:12:57;1.13;;;1.03;;
489;SDS011;231;48.120;11.576;2023-04-24T10:15:25;1.50;;;1.27;;
489;SDS011;231;48.120;11.576;2023-04-24T10:17:53;1.77;;;0.90;;
489;SDS011;231;48.120;11.576;2023-04-24T10:20:20;1.27;;;1.00;;
489;SDS011;231;48.120;11.576;2023-04-24T10:22:49;1.63;;;1.53;;
489;SDS011;231;48.120;11.576;2023-04-24T10:25:18;1.10;;;1.00;;
489;SDS011;231;48.120;11.576;2023-04-24T10:27:48;1.63;;;1.53;;
489;SDS011;231;48.120;11.576;2023-04-24T10:30:16;8.97;;;1.33;;
489;SDS011;231;48.120;11.576;2023-04-24T10:32:43;2.47;;;1.60;;
489;SDS011;231;48.120;11.576;2023-04-24T10:35:12;1.57;;;1.47;;
489;SDS011;231;48.120;11.576;2023-04-24T10:37:40;3.53;;;1.43;;
489;SDS011;231;48.120;11.576;2023-04-24T10:40:17;1.60;;;1.43;;
489;SDS011;231;48.120;11.576;2023-04-24T10:42:52;2.03;;;1.47;;
489;SDS011;231;48.120;11.576;2023-04-24T10:45:19;1.83;;;1.57;;
489;SDS011;231;48.120;11.576;2023-04-24T10:47:57;2.10;;;1.67;;
489;SDS011;231;48.120;11.576;2023-04-24T10:50:26;1.90;;;1.20;;
489;SDS011;231;48.120;11.576;2023-04-24T10:52:55;2.37;;;1.50;;
489;SDS011;231;48.120;11.576;2023-04-24T10:55:42;2.93;;;2.00;;
489;SDS011;231;48.120;11.576;2023-04-24T10:58:11;2.50;;;1.40;;
489;SDS011;231;48.120;11.576;2023-04-24T11:00:40;1.77;;;1.50;;
489;SDS011;231;48.120;11.576;2023-04-24T11:03:12;4.80;;;1.57;;
489;SDS011;231;48.120;11.576;2023-04-24T11:05:50;2.00;;;1.30;;
489;SDS011;231;48.120;11.576;2023-04-24T11:08:23;1.40;;;1.30;;
489;SDS011;231;48.120;11.576;2023-04-24T11:10:57;2.27;;;2.07;;
489;SDS011;231;48.120;11.576;2023-04-24T11:13:27;1.93;;;1.83;;
489;SDS011;231;48.120;11.576;2023-04-24T11:16:15;1.43;;;1.40;;
489;SDS011;231;48.120;11.576;2023-04-24T11:18:49;1.90;;;1.80;;
489;SDS011;231;48.120;11.576;2023-04-24T11:21:19;2.93;;;1.23;;
489;SDS011;231;48.120;11.576;2023-04-24T11:23:48;1.00;;;0.97;;
489;SDS011;231;48.120;11.576;2023-04-24T11:26:17;1.60;;;1.40;;
489;SDS011;231;48.120;11.576;2023-04-24T11:28:50;1.70;;;1.00;;
489;SDS011;231;48.120;11.576;2023-04-24T11:31:36;1.70;;;1.60;;
489;SDS011;231;48.120;11.576;2023-04-24T11:34:07;1.50;;;1.40;;
489;SDS011;231;48.120;11.576;2023-04-24T11:36:35;1.97;;;1.43;;
489;SDS011;231;48.120;11.576;2023-04-24T11:39:02;2.03;;;1.20;;
489;SDS011;231;48.120;11.576;2023-04-24T11:41:31;1.63;;;1.53;;
489;SDS011;231;48.120;11.576;2023-04-24T11:44:00;1.27;;;1.00;;
489;SDS011;231;48.120;11.576;2023-04-24T11:46:28;1.87;;;1.20;;
489;SDS011;231;48.120;11.576;2023-04-24T11:48:57;1.40;;;1.30;;
489;SDS011;231;48.120;11.576;2023-04-24T11:51:24;3.13;;;1.30;;
489;SDS011;231;48.120;11.576;2023-04-24T11:53:52;1.80;;;1.67;;
489;SDS011;231;48.120;11.576;2023-04-24T11:56:22;1.10;;;1.00;;
489;SDS011;231;48.120;11.576;2023-04-24T11:58:51;1.27;;;1.17;;
489;SDS011;231;48.120;11.576;2023-04-24T12:01:20;1.50;;;1.40;;
489;SDS011;231;48.120;11.576;2023-04-24T12:03:48;3.50;;;1.80;;
489;SDS011;231;48.120;11.576;2023-04-24T12:06:16;1.60;;;1.50;;
489;SDS011;231;48.120;11.576;2023-04-24T12:08:45;1.50;;;1.30;;
489;SDS011;231;48.120;11.576;2023-04-24T12:11:14;1.67;;;1.37;;
489;SDS011;231;48.120;11.576;2023-04-24T12:13:43;13.60;;;2.37;;
489;SDS011;231;48.120;11.576;2023-04-24T12:16:11;0.90;;;0.80;;
489;SDS011;231;48.120;11.576;2023-04-24T12:18:44;1.30;;;1.10;;
489;SDS011;231;48.120;11.576;2023-04-24T12:21:14;1.57;;;1.10;;
489;SDS011;231;48.120;11.576;2023-04-24T12:23:42;1.20;;;1.10;;
489;SDS011;231;48.120;11.576;2023-04-24T12:26:10;1.37;;;0.93;;
489;SDS011;231;48.120;11.576;2023-04-24T12:28:38;3.97;;;1.40;;
489;SDS011;231;48.120;11.576;2023-04-24T12:31:06;2.00;;;1.40;;
489;SDS011;231;48.120;11.576;2023-04-24T12:33:33;1.10;;;1.00;;
489;SDS011;231;48.120;11.576;2023-04-24T12:36:02;1.40;;;1.30;;
489;SDS011;231;48.120;11.576;2023-04-24T12:38:30;1.10;;;1.00;;
489;SDS011;231;48.120;11.576;2023-04-24T12:41:05;2.40;;;1.53;;
489;SDS011;231;48.120;11.576;2023-04-24T12:43:33;1.70;;;1.20;;
489;SDS011;231;48.120;11.576;2023-04-24T12:46:01;1.27;;;1.27;;
489;SDS011;231;48.120;11.576;2023-04-24T12:48:28;1.10;;;1.03;;
489;SDS011;231;48.120;11.576;2023-04-24T12:50:56;1.00;;;0.90;;
489;SDS011;231;48.120;11.576;2023-04-24T12:53:27;1.33;;;1.23;;
489;SDS011;231;48.120;11.576;2023-04-24T12:55:58;1.37;;;0.80;;
489;SDS011;231;48.120;11.576;2023-04-24T12:58:25;1.37;;;1.00;;
489;SDS011;231;48.120;11.576;2023-04-24T13:00:52;1.50;;;1.20;;
489;SDS011;231;48.120;11.576;2023-04-24T13:03:19;1.43;;;1.00;;
489;SDS011;231;48.120;11.576;2023-04-24T13:05:47;2.77;;;1.60;;
489;SDS011;231;48.120;11.576;2023-04-24T13:08:14;4.20;;;2.33;;
489;SDS011;231;48.120;11.576;2023-04-24T13:10:42;1.20;;;1.10;;
489;SDS011;231;48.120;11.576;2023-04-24T13:13:09;2.03;;;1.57;;
489;SDS011;231;48.120;11.576;2023-04-24T13:15:36;1.27;;;1.23;;
489;SDS011;231;48.120;11.576;2023-04-24T13:18:03;2.00;;;1.90;;
489;SDS011;231;48.120;11.576;2023-04-24T13:20:32;1.70;;;1.60;;
489;SDS011;231;48.120;11.576;2023-04-24T13:23:00;3.33;;;1.77;;
489;SDS011;231;48.120;11.576;2023-04-24T13:25:27;1.10;;;1.00;;
489;SDS011;231;48.120;11.576;2023-04-24T13:27:56;4.83;;;1.67;;
489;SDS011;231;48.120;11.576;2023-04-24T13:30:22;1.73;;;1.67;;
489;SDS011;231;48.120;11.576;2023-04-24T13:32:49;1.60;;;1.50;;
489;SDS011;231;48.120;11.576;2023-04-24T13:35:16;1.67;;;1.57;;
489;SDS011;231;48.120;11.576;2023-04-24T13:37:43;2.07;;;1.93;;
489;SDS011;231;48.120;11.576;2023-04-24T13:40:10;1.30;;;1.23;;
489;SDS011;231;48.120;11.576;2023-04-24T13:42:37;1.43;;;1.37;;
489;SDS011;231;48.120;11.576;2023-04-24T13:45:06;3.57;;;1.90;;
489;SDS011;231;48.120;11.576;2023-04-24T13:47:36;1.43;;;1.37;;
489;SDS011;231;48.120;11.576;2023-04-24T13:50:06;2.20;;;1.67;;
489;SDS011;231;48.120;11.576;2023-04-24T13:52:33;1.50;;;1.40;;
489;SDS011;231;48.120;11.576;2023-04-24T13:55:00;1.80;;;1.10;;
489;SDS011;231;48.120;11.576;2023-04-24T13:57:27;2.53;;;2.33;;
489;SDS011;231;48.120;11.576;2023-04-24T13:59:55;3.83;;;1.47;;
489;SDS011;231;48.120;11.576;2023-04-24T14:02:27;3.33;;;1.43;;
489;SDS011;231;48.120;11.576;2023-04-24T14:04:54;1.97;;;1.30;;
489;SDS011;231;48.120;11.576;2023-04-24T14:07:21;2.03;;;1.93;;
489;SDS011;231;48.120;11.576;2023-04-24T14:09:48;1.50;;;1.40;;
489;SDS011;231;48.120;11.576;2023-04-24T14:12:14;2.73;;;1.50;;
489;SDS011;231;48.120;11.576;2023-04-24T14:14:44;4.10;;;1.60;;
489;SDS011;231;48.120;11.576;2023-04-24T14:17:12;6.00;;;1.53;;
489;SDS011;231;48.120;11.576;2023-04-24T14:19:40;2.10;;;1.30;;
489;SDS011;231;48.120;11.576;2023-04-24T14:22:07;1.67;;;1.57;;
489;SDS011;231;48.120;11.576;2023-04-24T14:24:33;1.33;;;1.23;;
489;SDS011;231;48.120;11.576;2023-04-24T14:27:01;1.43;;;1.33;;
489;SDS011;231;48.120;11.576;2023-04-24T14:29:28;1.43;;;1.33;;
489;SDS011;231;48.120;11.576;2023-04-24T14:31:55;1.60;;;1.50;;
489;SDS011;231;48.120;11.576;2023-04-24T14:34:22;1.67;;;1.63;;
489;SDS011;231;48.120;11.576;2023-04-24T14:36:50;1.77;;;1.63;;
489;SDS011;231;48.120;11.576;2023-04-24T14:39:18;2.07;;;1.60;;
489;SDS011;231;48.120;11.576;2023-04-24T14:41:45;2.73;;;1.50;;
489;SDS011;231;48.120;11.576;2023-04-24T14:44:12;1.93;;;1.77;;
489;SDS011;231;48.120;11.576;2023-04-24T14:46:39;2.70;;;1.87;;
489;SDS011;231;48.120;11.576;2023-04-24T14:49:06;2.00;;;1.70;;
489;SDS011;231;48.120;11.576;2023-04-24T14:51:34;1.40;;;1.37;;
489;SDS011;231;48.120;11.576;2023-04-24T14:54:02;2.10;;;1.67;;
489;SDS011;231;48.120;11.576;2023-04-24T14:56:30;2.47;;;2.27;;
489;SDS011;231;48.120;11.576;2023-04-24T14:58:56;3.47;;;1.90;;
489;SDS011;231;48.120;11.576;2023-04-24T15:01:23;1.60;;;1.40;;
489;SDS011;231;48.120;11.576;2023-04-24T15:03:50;1.87;;;1.20;;
489;SDS011;231;48.120;11.576;2023-04-24T15:06:17;2.17;;;1.70;;
489;SDS011;231;48.120;11.576;2023-04-24T15:08:45;2.27;;;2.07;;
489;SDS011;231;48.120;11.576;2023-04-24T15:11:13;1.93;;;1.33;;
489;SDS011;231;48.120;11.576;2023-04-24T15:13:40;1.37;;;1.10;;
489;SDS011;231;48.120;11.576;2023-04-24T15:16:07;1.37;;;1.27;;
489;SDS011;231;48.120;11.576;2023-04-24T15:18:34;2.83;;;1.90;;
489;SDS011;231;48.120;11.576;2023-04-24T15:21:01;2.90;;;1.90;;
489;SDS011;231;48.120;11.576;2023-04-24T15:23:28;1.63;;;1.50;;
489;SDS011;231;48.120;11.576;2023-04-24T15:25:55;1.40;;;1.20;;
489;SDS011;231;48.120;11.576;2023-04-24T15:28:24;3.43;;;1.83;;
489;SDS011;231;48.120;11.576;2023-04-24T15:30:51;1.67;;;1.63;;
489;SDS011;231;48.120;11.576;2023-04-24T15:33:18;1.53;;;1.40;;
489;SDS011;231;48.120;11.576;2023-04-24T15:35:44;2.23;;;1.70;;